Time;durP1;ratioP1;P1;durP2;ratioP2;P2;SDS_P1;SDS_P2;PMS_P1;PMS_P2;Temp;Humidity;BMP_temperature;BMP_pressure;BME280_temperature;BME280_humidity;BME280_pressure;Samples;Min_cycle;Max_cycle;Signal;HPM_P1;HPM_P2
2022/08/27 00:00:39;;;;;;;7.32;0.60;;;;;;;18.42;79.73;101426.34;2054628;28;25742;-71
2022/08/27 00:01:42;;;;;;;4.90;0.40;;;;;;;18.41;79.69;101427.31;2054647;28;21907;-71
2022/08/27 00:02:47;;;;;;;6.10;0.60;;;;;;;18.42;79.57;101425.47;2047452;28;39391;-72
2022/08/27 00:03:52;;;;;;;3.78;0.30;;;;;;;18.41;79.52;101426.41;2046883;28;24150;-68
2022/08/27 00:04:54;;;;;;;6.30;0.50;;;;;;;18.37;79.25;101424.81;2047727;28;25943;-71
2022/08/27 00:05:56;;;;;;;6.60;0.43;;;;;;;18.38;79.14;101429.28;2047700;28;20909;-70
2022/08/27 00:06:58;;;;;;;5.93;0.40;;;;;;;18.35;79.43;101424.00;2047482;28;31034;-71
2022/08/27 00:08:11;;;;;;;8.02;0.60;;;;;;;18.36;79.20;101423.03;2047001;28;29871;-71
2022/08/27 00:09:13;;;;;;;6.43;0.45;;;;;;;18.33;78.63;101420.50;2047936;28;28211;-70
2022/08/27 00:10:21;;;;;;;5.28;0.45;;;;;;;18.30;79.17;101411.56;2047156;28;26595;-69
2022/08/27 00:11:25;;;;;;;5.82;0.50;;;;;;;18.31;79.23;101418.72;2047754;28;20040;-71
2022/08/27 00:12:27;;;;;;;3.78;0.35;;;;;;;18.30;79.41;101414.28;2047152;28;37208;-71
2022/08/27 00:13:31;;;;;;;6.10;0.63;;;;;;;18.31;79.35;101421.44;2046987;28;25541;-70
2022/08/27 00:14:34;;;;;;;3.47;0.30;;;;;;;18.31;79.28;101418.72;2047487;28;20111;-70
2022/08/27 00:15:37;;;;;;;8.63;0.50;;;;;;;18.29;79.63;101409.78;2047133;28;33698;-71
2022/08/27 00:16:41;;;;;;;3.95;0.43;;;;;;;18.29;79.46;101415.22;2047270;28;24775;-71
2022/08/27 00:17:44;;;;;;;7.43;0.43;;;;;;;18.30;79.15;101413.38;2047091;28;28495;-69
2022/08/27 00:18:47;;;;;;;7.60;0.50;;;;;;;18.28;79.13;101412.56;2054454;28;31394;-71
2022/08/27 00:19:49;;;;;;;6.53;0.40;;;;;;;18.27;79.38;101417.13;2054387;28;20150;-70
2022/08/27 00:20:51;;;;;;;7.03;0.60;;;;;;;18.27;79.35;101425.25;2047943;28;30697;-70
2022/08/27 00:21:54;;;;;;;8.68;0.95;;;;;;;18.25;79.35;101413.59;2046910;28;36775;-69
2022/08/27 00:22:56;;;;;;;5.97;0.55;;;;;;;18.23;79.00;101407.38;2047277;28;34996;-70
2022/08/27 00:23:58;;;;;;;7.05;0.75;;;;;;;18.23;79.28;101410.09;2046656;28;36863;-72
2022/08/27 00:25:00;;;;;;;7.85;0.50;;;;;;;18.25;79.02;101412.72;2047368;28;22123;-70
2022/08/27 00:26:05;;;;;;;4.68;0.40;;;;;;;18.25;79.18;101415.41;2047133;28;31913;-70
2022/08/27 00:27:06;;;;;;;4.75;0.35;;;;;;;18.26;78.98;101409.94;2054496;28;30008;-70
2022/08/27 00:28:08;;;;;;;5.28;0.38;;;;;;;18.26;78.91;101409.94;2054494;28;20936;-70
2022/08/27 00:29:10;;;;;;;5.85;0.70;;;;;;;18.25;78.85;101407.28;2047270;28;29145;-69
2022/08/27 00:30:16;;;;;;;6.75;0.50;;;;;;;18.26;79.27;101412.63;2047152;28;20058;-69
2022/08/27 00:31:18;;;;;;;4.93;0.40;;;;;;;18.27;78.83;101410.81;2047671;28;31560;-71
2022/08/27 00:32:22;;;;;;;3.85;0.20;;;;;;;18.27;78.82;101413.53;2047427;28;21008;-70
2022/08/27 00:33:25;;;;;;;3.40;0.50;;;;;;;18.23;78.56;101404.69;2047054;28;29953;-70
2022/08/27 00:34:27;;;;;;;5.88;0.32;;;;;;;18.24;78.74;101402.84;2047065;28;29637;-70
2022/08/27 00:35:29;;;;;;;5.88;0.65;;;;;;;18.24;78.63;101406.41;2046765;28;35219;-69
2022/08/27 00:36:31;;;;;;;5.47;0.40;;;;;;;18.24;78.64;101413.69;2047825;28;20703;-70
2022/08/27 00:37:34;;;;;;;6.88;0.65;;;;;;;18.22;78.90;101402.03;2047246;28;24150;-69
2022/08/27 00:38:40;;;;;;;9.18;0.40;;;;;;;18.24;78.36;101408.25;2047459;28;28169;-69
2022/08/27 00:39:42;;;;;;;7.40;0.73;;;;;;;18.21;78.31;101406.56;2047107;28;20039;-70
2022/08/27 00:40:44;;;;;;;8.13;0.50;;;;;;;18.21;78.71;101401.13;2046923;28;28307;-70
2022/08/27 00:41:48;;;;;;;7.50;0.50;;;;;;;18.21;78.47;101395.72;2047236;28;29143;-69
2022/08/27 00:42:50;;;;;;;5.35;0.30;;;;;;;18.20;78.78;101399.38;2047346;28;20075;-70
2022/08/27 00:44:01;;;;;;;5.20;0.57;;;;;;;18.19;78.59;101397.63;2047365;28;22857;-69
2022/08/27 00:45:06;;;;;;;6.80;0.60;;;;;;;18.19;78.40;101402.16;2047066;28;26123;-70
2022/08/27 00:46:19;;;;;;;3.85;0.40;;;;;;;18.16;78.48;101397.78;2046829;28;31584;-68
2022/08/27 00:47:25;;;;;;;5.78;0.38;;;;;;;18.17;78.65;101396.81;2046731;28;22706;-62
2022/08/27 00:48:32;;;;;;;5.03;0.60;;;;;;;18.18;78.57;101400.41;2046713;28;37092;-62
2022/08/27 00:49:48;;;;;;;7.50;0.60;;;;;;;18.17;78.64;101404.09;2045994;28;36497;-61
2022/08/27 00:50:54;;;;;;;7.07;0.40;;;;;;;18.15;78.78;101406.00;2046552;28;32600;-66
2022/08/27 00:52:16;;;;;;;4.13;0.40;;;;;;;18.14;78.76;101410.50;2046358;28;34952;-68
2022/08/27 00:53:23;;;;;;;5.45;0.30;;;;;;;18.13;78.85;101408.75;2049624;28;26088;-69
2022/08/27 00:54:26;;;;;;;7.30;0.40;;;;;;;18.13;79.13;101408.75;2030986;29;23931;-70
2022/08/27 00:55:41;;;;;;;6.47;0.45;;;;;;;18.13;78.83;101411.47;2030589;29;26678;-68
2022/08/27 00:56:44;;;;;;;4.18;0.50;;;;;;;18.11;78.91;101402.53;2031745;29;26562;-69
2022/08/27 00:57:56;;;;;;;4.70;0.32;;;;;;;18.11;79.11;101407.97;2031583;29;20263;-68
2022/08/27 00:59:03;;;;;;;4.57;0.50;;;;;;;18.12;79.23;101407.00;2039177;29;20055;-69
2022/08/27 01:00:11;;;;;;;5.38;0.45;;;;;;;18.10;79.21;101417.03;2037424;29;27850;-69
2022/08/27 01:01:22;;;;;;;5.43;0.63;;;;;;;18.09;79.62;101404.44;2038605;29;27082;-68
2022/08/27 01:02:28;;;;;;;4.90;0.45;;;;;;;18.09;79.36;101405.31;2036573;29;35133;-69
2022/08/27 01:03:33;;;;;;;5.45;0.52;;;;;;;18.07;79.75;101415.34;2030495;29;33323;-69
2022/08/27 01:04:38;;;;;;;6.30;0.50;;;;;;;18.04;79.85;101409.19;2031337;29;27239;-68
2022/08/27 01:05:42;;;;;;;9.73;0.65;;;;;;;18.05;79.77;101410.94;2038355;29;24938;-69
2022/08/27 01:06:44;;;;;;;6.00;0.40;;;;;;;18.06;79.75;101415.44;2037414;28;29774;-69
2022/08/27 01:07:50;;;;;;;6.78;0.50;;;;;;;18.06;79.98;101412.72;2031317;29;22173;-71
2022/08/27 01:09:04;;;;;;;3.30;0.35;;;;;;;18.05;79.70;101409.13;2038531;29;31132;-70
2022/08/27 01:10:12;;;;;;;5.28;0.32;;;;;;;18.04;79.76;101414.63;2038607;29;27044;-70
2022/08/27 01:11:14;;;;;;;8.52;0.60;;;;;;;18.04;79.75;101409.19;2038414;29;34812;-70
2022/08/27 01:12:17;;;;;;;8.70;0.98;;;;;;;18.03;79.46;101410.13;2037863;29;20044;-71
2022/08/27 01:13:24;;;;;;;10.93;0.63;;;;;;;18.03;79.73;101413.72;2038327;29;34152;-70
2022/08/27 01:14:44;;;;;;;5.22;0.50;;;;;;;18.02;79.94;101411.09;2038422;29;28769;-72
2022/08/27 01:15:46;;;;;;;3.15;0.45;;;;;;;18.02;79.74;101408.41;2038440;29;27793;-71
2022/08/27 01:16:55;;;;;;;5.28;0.50;;;;;;;18.02;79.72;101405.69;2038377;29;27500;-72
2022/08/27 01:17:58;;;;;;;6.80;0.63;;;;;;;18.02;79.96;101406.56;2040221;28;24167;-68
2022/08/27 01:19:02;;;;;;;4.90;0.35;;;;;;;18.04;80.09;101409.19;2046911;28;31008;-68
2022/08/27 01:20:08;;;;;;;2.83;0.47;;;;;;;18.04;80.01;101414.63;2046102;28;24607;-68
2022/08/27 01:21:37;;;;;;;6.57;0.55;;;;;;;18.02;80.30;101411.09;2046559;28;25107;-68
2022/08/27 01:22:59;;;;;;;7.53;0.70;;;;;;;18.00;80.14;101418.41;2043092;28;28560;-68
2022/08/27 01:24:42;;;;;;;7.43;0.68;;;;;;;17.97;80.68;101414.03;2051679;28;30203;-68
2022/08/27 01:25:45;;;;;;;5.88;0.50;;;;;;;17.99;80.62;101416.66;2049753;28;28962;-68
2022/08/27 01:26:47;;;;;;;8.38;0.35;;;;;;;17.99;79.93;101417.53;2054824;28;23492;-68
2022/08/27 01:27:57;;;;;;;7.50;0.52;;;;;;;17.98;80.32;101413.09;2054578;28;28492;-68
2022/08/27 01:28:59;;;;;;;5.95;0.38;;;;;;;17.97;80.01;101416.72;2054552;28;31577;-68
2022/08/27 01:30:03;;;;;;;7.68;0.50;;;;;;;17.95;80.03;101413.22;2054504;28;25191;-68
2022/08/27 01:31:09;;;;;;;6.85;0.70;;;;;;;17.96;80.52;101406.81;2054023;28;23036;-68
2022/08/27 01:32:22;;;;;;;5.03;0.65;;;;;;;17.96;80.17;101409.53;2054781;28;36403;-68
2022/08/27 01:33:24;;;;;;;5.63;0.60;;;;;;;17.96;80.45;101409.53;2054804;28;24613;-68
2022/08/27 01:34:26;;;;;;;6.80;0.50;;;;;;;17.96;80.30;101414.09;2053519;28;36361;-68
2022/08/27 01:35:28;;;;;;;6.60;0.60;;;;;;;17.95;80.10;101415.06;2047380;28;23232;-69
2022/08/27 01:36:32;;;;;;;4.78;0.57;;;;;;;17.96;80.27;101419.50;2047215;28;32791;-68
2022/08/27 01:37:35;;;;;;;6.35;1.27;;;;;;;17.96;80.19;101417.66;2046649;28;39635;-68
2022/08/27 01:38:39;;;;;;;5.97;0.90;;;;;;;17.95;80.33;101415.06;2047572;28;25709;-68
2022/08/27 01:39:42;;;;;;;6.55;0.90;;;;;;;17.94;80.04;101414.16;2047423;28;25468;-68
2022/08/27 01:40:44;;;;;;;4.47;0.52;;;;;;;17.93;80.06;101413.28;2047831;28;27591;-68
2022/08/27 01:41:49;;;;;;;7.95;0.43;;;;;;;17.93;79.73;101417.81;2047047;28;31763;-69
2022/08/27 01:42:56;;;;;;;6.93;0.50;;;;;;;17.91;79.81;101426.03;2047798;28;33043;-68
2022/08/27 01:43:57;;;;;;;6.82;0.50;;;;;;;17.87;80.42;101420.81;2047092;28;36692;-68
2022/08/27 01:45:14;;;;;;;3.50;0.40;;;;;;;17.88;79.94;101414.44;2047118;28;25106;-68
2022/08/27 01:46:25;;;;;;;4.20;0.60;;;;;;;17.88;80.05;101415.31;2047566;28;31085;-68
2022/08/27 01:47:28;;;;;;;6.82;0.50;;;;;;;17.87;79.84;101421.69;2047551;28;20127;-68
2022/08/27 01:48:30;;;;;;;4.38;0.50;;;;;;;17.89;79.92;101424.31;2054713;28;22620;-68
2022/08/27 01:49:33;;;;;;;8.88;0.50;;;;;;;17.89;79.70;101421.59;2054437;28;24251;-68
2022/08/27 01:50:40;;;;;;;4.10;0.40;;;;;;;17.85;79.99;101426.28;2047374;28;21342;-68
2022/08/27 01:51:42;;;;;;;6.88;0.82;;;;;;;17.85;79.42;101428.09;2047183;28;27269;-68
2022/08/27 01:52:44;;;;;;;4.82;0.35;;;;;;;17.84;80.03;101431.78;2047717;28;20050;-66
2022/08/27 01:53:51;;;;;;;4.65;0.55;;;;;;;17.84;79.63;101435.34;2047273;28;29035;-68
2022/08/27 01:54:53;;;;;;;7.50;0.40;;;;;;;17.85;79.57;101431.69;2047759;28;26351;-68
2022/08/27 01:55:56;;;;;;;6.07;0.65;;;;;;;17.86;79.67;101430.75;2047523;28;24532;-68
2022/08/27 01:56:58;;;;;;;5.38;0.40;;;;;;;17.87;79.61;101432.53;2047270;28;30735;-68
2022/08/27 01:58:01;;;;;;;7.43;0.55;;;;;;;17.86;79.35;101428.06;2047089;28;27154;-68
2022/08/27 01:59:03;;;;;;;5.50;0.30;;;;;;;17.87;79.34;101427.13;2047397;28;25204;-68
2022/08/27 02:00:11;;;;;;;5.28;0.40;;;;;;;17.86;79.48;101436.19;2046467;28;30615;-69
2022/08/27 02:01:15;;;;;;;5.63;0.60;;;;;;;17.86;79.22;101436.19;2054806;28;27230;-68
2022/08/27 02:02:17;;;;;;;7.00;0.70;;;;;;;17.88;79.41;101434.28;2054117;28;27876;-68
2022/08/27 02:03:19;;;;;;;5.50;0.73;;;;;;;17.88;79.50;101433.41;2053259;28;29732;-68
2022/08/27 02:04:22;;;;;;;6.65;0.50;;;;;;;17.87;79.36;101440.66;2046879;28;30986;-68
2022/08/27 02:05:26;;;;;;;4.07;0.35;;;;;;;17.85;79.33;101439.81;2054711;28;39500;-69
2022/08/27 02:06:28;;;;;;;6.72;0.60;;;;;;;17.86;78.99;101443.44;2053588;28;30463;-69
2022/08/27 02:07:32;;;;;;;7.07;0.60;;;;;;;17.86;78.92;101435.31;2047083;28;26533;-68
2022/08/27 02:08:34;;;;;;;4.50;0.40;;;;;;;17.84;79.00;101434.47;2047475;28;20992;-69
2022/08/27 02:09:36;;;;;;;6.88;0.68;;;;;;;17.85;79.03;101436.22;2047025;28;31699;-68
2022/08/27 02:10:39;;;;;;;7.32;0.50;;;;;;;17.84;79.07;101435.34;2047217;28;26609;-69
2022/08/27 02:11:41;;;;;;;6.60;0.50;;;;;;;17.82;79.30;101437.25;2047109;28;23623;-69
2022/08/27 02:12:44;;;;;;;6.15;0.40;;;;;;;17.82;79.07;101431.84;2048103;28;29870;-68
2022/08/27 02:13:46;;;;;;;4.30;0.40;;;;;;;17.81;78.99;101435.47;2049107;28;20040;-69
2022/08/27 02:14:48;;;;;;;7.45;0.50;;;;;;;17.79;79.15;101429.25;2047973;28;30096;-68
2022/08/27 02:15:53;;;;;;;4.00;0.50;;;;;;;17.73;78.78;101433.13;2048609;28;31666;-68
2022/08/27 02:16:57;;;;;;;4.70;0.50;;;;;;;17.77;79.03;101435.69;2048920;28;20040;-68
2022/08/27 02:18:00;;;;;;;4.68;0.47;;;;;;;17.77;78.93;101433.00;2048700;28;33897;-68
2022/08/27 02:19:06;;;;;;;3.60;0.50;;;;;;;17.77;78.91;101427.56;2048875;28;20181;-68
2022/08/27 02:20:09;;;;;;;7.63;0.55;;;;;;;17.75;78.85;101441.19;2048768;28;32785;-69
2022/08/27 02:21:12;;;;;;;4.05;0.32;;;;;;;17.74;79.16;101434.88;2049074;28;20047;-68
2022/08/27 02:22:15;;;;;;;5.40;0.40;;;;;;;17.74;78.93;101437.56;2048650;28;23464;-68
2022/08/27 02:23:17;;;;;;;4.75;0.50;;;;;;;17.74;79.32;101434.88;2048880;28;20043;-68
2022/08/27 02:24:19;;;;;;;6.78;0.50;;;;;;;17.74;79.07;101434.00;2048610;28;30014;-68
2022/08/27 02:25:21;;;;;;;4.57;0.50;;;;;;;17.75;78.95;101435.78;2048133;28;35337;-68
2022/08/27 02:26:23;;;;;;;3.15;0.38;;;;;;;17.73;78.89;101433.13;2048665;28;28747;-68
2022/08/27 02:27:25;;;;;;;3.38;0.40;;;;;;;17.74;79.11;101428.56;2048103;28;32600;-68
2022/08/27 02:28:27;;;;;;;5.05;0.52;;;;;;;17.75;78.93;101435.78;2056773;28;20918;-68
2022/08/27 02:29:29;;;;;;;7.45;0.65;;;;;;;17.69;79.46;101436.03;2055524;28;34165;-68
2022/08/27 02:30:34;;;;;;;5.65;0.40;;;;;;;17.71;79.01;101435.03;2048006;28;29010;-68
2022/08/27 02:31:37;;;;;;;4.38;0.50;;;;;;;17.71;79.18;101426.91;2049040;28;20178;-68
2022/08/27 02:32:39;;;;;;;4.85;0.38;;;;;;;17.71;79.15;101429.59;2048812;28;22410;-68
2022/08/27 02:33:41;;;;;;;6.95;0.50;;;;;;;17.72;78.73;101441.31;2048963;28;20186;-68
2022/08/27 02:34:45;;;;;;;9.23;0.40;;;;;;;17.69;79.02;101436.03;2048633;28;30450;-68
2022/08/27 02:35:47;;;;;;;3.05;0.30;;;;;;;17.68;79.15;101437.84;2048317;28;24397;-68
2022/08/27 02:36:49;;;;;;;4.18;0.40;;;;;;;17.67;79.07;101433.38;2048428;28;27768;-68
2022/08/27 02:37:51;;;;;;;5.57;0.40;;;;;;;17.67;78.94;101433.38;2047755;28;30664;-68
2022/08/27 02:38:54;;;;;;;5.50;0.75;;;;;;;17.68;79.43;101439.69;2048763;28;24939;-68
2022/08/27 02:40:00;;;;;;;7.60;0.77;;;;;;;17.67;79.08;101437.94;2048383;28;21982;-68
2022/08/27 02:41:02;;;;;;;2.90;0.30;;;;;;;17.67;79.00;101427.97;2048557;28;26643;-69
2022/08/27 02:42:04;;;;;;;6.60;0.57;;;;;;;17.68;79.10;101437.84;2048376;28;27135;-68
2022/08/27 02:43:06;;;;;;;6.82;0.40;;;;;;;17.63;79.11;101433.59;2048065;28;28869;-69
2022/08/27 02:44:11;;;;;;;4.88;0.47;;;;;;;17.63;79.81;101433.59;2048395;28;30345;-69
2022/08/27 02:45:16;;;;;;;6.95;0.55;;;;;;;17.65;79.34;101429.00;2048130;28;30373;-68
2022/08/27 02:46:21;;;;;;;4.63;0.40;;;;;;;17.65;79.21;101439.81;2048080;28;33839;-68
2022/08/27 02:47:23;;;;;;;6.43;0.50;;;;;;;17.66;79.66;101439.75;2048257;28;29635;-68
2022/08/27 02:48:26;;;;;;;6.28;0.40;;;;;;;17.66;79.37;101436.19;2048574;28;23732;-68
2022/08/27 02:49:29;;;;;;;4.38;0.38;;;;;;;17.67;79.53;101437.94;2048223;28;28508;-68
2022/08/27 02:50:31;;;;;;;3.65;0.40;;;;;;;17.67;79.48;101436.09;2048930;28;21299;-68
2022/08/27 02:51:33;;;;;;;3.83;0.30;;;;;;;17.66;79.42;101431.63;2048428;28;24146;-68
2022/08/27 02:52:35;;;;;;;5.07;0.57;;;;;;;17.63;79.84;101433.59;2048256;28;24315;-68
2022/08/27 02:53:37;;;;;;;6.78;0.50;;;;;;;17.64;79.44;101438.06;2047919;28;39384;-68
2022/08/27 02:54:39;;;;;;;9.40;0.60;;;;;;;17.61;79.76;101430.09;2048139;28;38599;-68
2022/08/27 02:55:40;;;;;;;3.13;0.40;;;;;;;17.62;79.66;101434.53;2048236;28;32097;-68
2022/08/27 02:56:45;;;;;;;8.52;0.47;;;;;;;17.62;79.58;101430.03;2048399;28;25176;-68
2022/08/27 02:57:47;;;;;;;5.88;0.50;;;;;;;17.62;79.65;101427.31;2048438;28;27310;-68
2022/08/27 02:58:49;;;;;;;7.18;0.43;;;;;;;17.62;79.73;101435.44;2048271;28;29093;-68
2022/08/27 02:59:52;;;;;;;4.72;0.50;;;;;;;17.62;79.87;101431.81;2055317;28;35604;-68
2022/08/27 03:00:55;;;;;;;2.90;0.40;;;;;;;17.63;79.32;101426.34;2047347;28;30357;-68
2022/08/27 03:01:57;;;;;;;3.45;0.30;;;;;;;17.62;79.68;101424.59;2047696;28;29268;-68
2022/08/27 03:03:00;;;;;;;4.28;0.50;;;;;;;17.61;79.95;101424.66;2048591;28;20040;-68
2022/08/27 03:04:04;;;;;;;4.05;0.57;;;;;;;17.60;79.68;101421.06;2048558;28;23969;-68
2022/08/27 03:05:10;;;;;;;4.75;0.50;;;;;;;17.60;79.79;101422.91;2047631;28;32641;-68
2022/08/27 03:06:12;;;;;;;7.43;0.50;;;;;;;17.61;79.77;101427.38;2048580;28;26437;-68
2022/08/27 03:07:14;;;;;;;4.53;0.40;;;;;;;17.61;79.85;101424.66;2048428;28;25268;-68
2022/08/27 03:08:19;;;;;;;3.08;0.40;;;;;;;17.61;80.15;101416.56;2048608;28;20044;-68
2022/08/27 03:09:21;;;;;;;8.57;0.68;;;;;;;17.60;80.35;101425.59;2047969;28;38893;-68
2022/08/27 03:10:22;;;;;;;4.85;0.43;;;;;;;17.59;79.74;101432.88;2048344;28;29814;-68
2022/08/27 03:11:24;;;;;;;6.00;0.68;;;;;;;17.59;80.43;101427.44;2047954;28;33037;-67
2022/08/27 03:12:26;;;;;;;5.82;0.40;;;;;;;17.58;79.63;101428.38;2048692;28;32560;-68
2022/08/27 03:13:29;;;;;;;3.35;0.30;;;;;;;17.60;79.62;101420.19;2048357;28;30037;-67
2022/08/27 03:14:31;;;;;;;5.95;0.32;;;;;;;17.59;79.87;101419.31;2048484;28;24779;-68
2022/08/27 03:15:36;;;;;;;4.40;0.50;;;;;;;17.61;80.09;101427.38;2047806;28;30627;-67
2022/08/27 03:16:40;;;;;;;6.00;0.50;;;;;;;17.59;80.32;101427.44;2048120;28;29102;-68
2022/08/27 03:19:06;;;;;;;4.70;0.40;;;;;;;17.60;80.08;101422.91;2055945;28;20043;-68
2022/08/27 03:20:11;;;;;;;4.22;0.40;;;;;;;17.58;80.23;101428.38;2055532;28;32088;-68
2022/08/27 03:21:24;;;;;;;5.28;0.47;;;;;;;17.58;80.25;101427.50;2047432;28;27617;-68
2022/08/27 03:22:26;;;;;;;5.25;0.40;;;;;;;17.56;80.34;101414.91;2047525;28;24046;-68
2022/08/27 03:23:33;;;;;;;6.38;0.60;;;;;;;17.55;80.27;101424.00;2047610;28;38415;-68
2022/08/27 03:24:35;;;;;;;3.25;0.47;;;;;;;17.55;79.89;101424.00;2047887;28;37556;-68
2022/08/27 03:25:37;;;;;;;4.82;0.55;;;;;;;17.55;80.25;101418.56;2048117;28;37230;-68
2022/08/27 03:26:39;;;;;;;4.40;0.50;;;;;;;17.56;80.28;101422.16;2047960;28;23795;-68
2022/08/27 03:27:41;;;;;;;3.22;0.40;;;;;;;17.55;80.29;101421.28;2048047;28;26311;-68
2022/08/27 03:28:45;;;;;;;6.53;0.60;;;;;;;17.55;80.76;101424.00;2048665;28;20042;-68
2022/08/27 03:29:47;;;;;;;6.63;0.65;;;;;;;17.52;80.68;101420.53;2055417;28;27054;-68
2022/08/27 03:31:00;;;;;;;4.35;0.30;;;;;;;17.51;81.09;101425.06;2055526;28;20093;-69
2022/08/27 03:32:05;;;;;;;4.00;0.50;;;;;;;17.51;80.93;101425.06;2047971;28;33658;-68
2022/08/27 03:33:07;;;;;;;7.25;0.40;;;;;;;17.53;80.70;101422.28;2055981;28;21062;-68
2022/08/27 03:34:09;;;;;;;7.00;0.52;;;;;;;17.51;80.84;101422.34;2054935;28;29126;-68
2022/08/27 03:35:11;;;;;;;5.97;0.60;;;;;;;17.50;80.67;101423.31;2047731;28;30317;-68
2022/08/27 03:36:13;;;;;;;5.60;0.50;;;;;;;17.49;81.24;101421.53;2048359;28;30678;-68
2022/08/27 03:37:15;;;;;;;5.13;0.60;;;;;;;17.48;80.65;101417.09;2048182;28;20052;-68
2022/08/27 03:38:17;;;;;;;6.03;0.70;;;;;;;17.47;80.99;101412.63;2048180;28;30604;-68
2022/08/27 03:39:19;;;;;;;5.85;0.45;;;;;;;17.48;81.22;101414.38;2047687;28;35038;-68
2022/08/27 03:40:21;;;;;;;6.45;0.40;;;;;;;17.49;80.81;101413.41;2047883;28;20886;-68
2022/08/27 03:41:24;;;;;;;8.65;0.68;;;;;;;17.48;80.81;101413.47;2047874;28;33046;-68
2022/08/27 03:42:41;;;;;;;6.85;0.45;;;;;;;17.45;81.02;101411.81;2048368;28;28955;-68
2022/08/27 03:43:43;;;;;;;5.53;0.50;;;;;;;17.45;80.75;101425.34;2047894;28;31191;-68
2022/08/27 03:44:47;;;;;;;7.25;0.57;;;;;;;17.43;81.20;101408.28;2047819;28;30237;-68
2022/08/27 03:45:50;;;;;;;4.38;0.85;;;;;;;17.44;81.20;101411.88;2047542;28;29191;-68
2022/08/27 03:47:02;;;;;;;6.88;0.60;;;;;;;17.43;81.09;101411.00;2048579;28;20059;-68
2022/08/27 03:48:05;;;;;;;4.07;0.40;;;;;;;17.44;81.20;101411.88;2054724;28;37883;-68
2022/08/27 03:49:06;;;;;;;5.95;0.57;;;;;;;17.43;81.00;101413.69;2055396;28;27323;-68
2022/08/27 03:50:09;;;;;;;3.67;0.40;;;;;;;17.41;81.18;101418.31;2047873;28;24643;-68
2022/08/27 03:51:14;;;;;;;5.38;0.60;;;;;;;17.40;81.06;101416.53;2047573;28;32876;-68
2022/08/27 03:52:16;;;;;;;6.55;0.65;;;;;;;17.36;81.50;101414.91;2047969;28;20040;-68
2022/08/27 03:53:20;;;;;;;7.57;0.60;;;;;;;17.35;81.40;101411.34;2047829;28;27277;-68
2022/08/27 03:54:24;;;;;;;5.53;0.73;;;;;;;17.35;81.63;101416.75;2047672;28;37067;-66
2022/08/27 03:55:26;;;;;;;4.38;0.43;;;;;;;17.36;81.08;101418.50;2048116;28;21429;-68
2022/08/27 03:56:28;;;;;;;6.53;0.90;;;;;;;17.36;81.06;101415.78;2047860;28;25636;-67
2022/08/27 03:57:31;;;;;;;5.32;0.40;;;;;;;17.35;81.34;101419.47;2048354;28;20404;-68
2022/08/27 03:58:35;;;;;;;5.60;0.73;;;;;;;17.36;81.23;101415.78;2048025;28;36823;-68
2022/08/27 03:59:37;;;;;;;6.45;0.50;;;;;;;17.34;81.57;101414.09;2047917;28;29289;-68
2022/08/27 04:00:40;;;;;;;5.55;0.50;;;;;;;17.33;81.46;101413.22;2047380;28;28052;-68
2022/08/27 04:01:43;;;;;;;4.72;0.60;;;;;;;17.32;81.45;101411.47;2047855;28;31103;-68
2022/08/27 04:02:45;;;;;;;6.45;0.50;;;;;;;17.31;81.93;101415.09;2048046;28;20671;-68
2022/08/27 04:03:47;;;;;;;5.22;0.40;;;;;;;17.32;81.01;101411.47;2048196;28;20060;-68
2022/08/27 04:04:49;;;;;;;5.05;0.30;;;;;;;17.31;81.41;101408.81;2047416;28;38543;-68
2022/08/27 04:05:55;;;;;;;3.17;0.73;;;;;;;17.31;81.56;101414.22;2048118;28;23603;-68
2022/08/27 04:06:57;;;;;;;6.90;0.60;;;;;;;17.31;81.75;101408.81;2055248;28;33098;-68
2022/08/27 04:08:02;;;;;;;7.80;0.40;;;;;;;17.27;81.81;101407.22;2054729;28;20124;-68
2022/08/27 04:09:04;;;;;;;4.65;0.60;;;;;;;17.27;82.01;101405.38;2048147;28;20042;-69
2022/08/27 04:10:09;;;;;;;4.70;0.50;;;;;;;17.27;81.70;101402.66;2047844;28;25512;-68
2022/08/27 04:11:11;;;;;;;6.55;0.55;;;;;;;17.28;81.85;101408.94;2047326;28;38699;-68
2022/08/27 04:12:13;;;;;;;6.25;0.40;;;;;;;17.28;81.83;101404.44;2048204;28;20158;-68
2022/08/27 04:13:16;;;;;;;4.70;0.40;;;;;;;17.28;81.87;101409.84;2047759;28;31349;-68
2022/08/27 04:14:20;;;;;;;4.10;0.50;;;;;;;17.26;82.45;101410.84;2048264;28;20032;-68
2022/08/27 04:15:25;;;;;;;3.13;0.47;;;;;;;17.26;81.76;101408.13;2047462;28;30207;-68
2022/08/27 04:16:27;;;;;;;4.25;0.77;;;;;;;17.27;81.88;101407.22;2047958;28;29632;-68
2022/08/27 04:17:30;;;;;;;4.75;0.50;;;;;;;17.27;81.67;101407.22;2047459;28;35422;-68
2022/08/27 04:18:32;;;;;;;3.50;0.30;;;;;;;17.26;81.84;101400.88;2047841;28;31109;-68
2022/08/27 04:19:34;;;;;;;5.30;0.40;;;;;;;17.27;82.52;101413.50;2047871;28;22012;-68
2022/08/27 04:20:36;;;;;;;6.30;0.50;;;;;;;17.27;82.00;101404.50;2047789;28;29723;-68
2022/08/27 04:21:38;;;;;;;5.80;0.70;;;;;;;17.26;82.07;101405.44;2047568;28;28848;-68
2022/08/27 04:22:40;;;;;;;6.22;0.68;;;;;;;17.24;82.33;101401.91;2048132;28;20908;-68
2022/08/27 04:23:46;;;;;;;6.47;0.47;;;;;;;17.24;82.58;101405.50;2047786;28;22880;-68
2022/08/27 04:24:49;;;;;;;6.15;0.50;;;;;;;17.26;82.39;101402.72;2055643;28;22912;-68
2022/08/27 04:25:53;;;;;;;3.70;0.35;;;;;;;17.23;82.40;101405.56;2054249;28;24586;-68
2022/08/27 04:26:54;;;;;;;2.30;0.45;;;;;;;17.24;82.29;101401.91;2047438;28;32574;-68
2022/08/27 04:27:57;;;;;;;3.90;0.50;;;;;;;17.23;81.99;101400.16;2047450;28;28036;-68
2022/08/27 04:28:59;;;;;;;4.75;0.70;;;;;;;17.23;82.84;101405.56;2047381;28;28614;-68
2022/08/27 04:30:02;;;;;;;4.68;0.50;;;;;;;17.23;82.94;101405.56;2046933;28;31575;-68
2022/08/27 04:31:05;;;;;;;4.75;0.30;;;;;;;17.24;82.89;101407.34;2047864;28;28212;-68
2022/08/27 04:32:09;;;;;;;6.90;0.57;;;;;;;17.22;82.53;101407.38;2047935;28;20062;-68
2022/08/27 04:33:12;;;;;;;6.55;0.40;;;;;;;17.21;82.61;101413.78;2047381;28;31446;-68
2022/08/27 04:34:17;;;;;;;5.53;0.60;;;;;;;17.21;82.38;101410.16;2047463;28;24327;-68
2022/08/27 04:35:19;;;;;;;4.97;0.50;;;;;;;17.22;82.65;101409.22;2047182;28;29807;-68
2022/08/27 04:36:21;;;;;;;4.95;0.40;;;;;;;17.21;82.78;101415.56;2048125;28;20162;-68
2022/08/27 04:37:30;;;;;;;4.10;0.30;;;;;;;17.21;82.71;101412.88;2047803;28;24371;-68
2022/08/27 04:38:32;;;;;;;6.95;0.50;;;;;;;17.21;82.89;101404.75;2048120;28;25778;-68
2022/08/27 04:39:35;;;;;;;5.53;0.70;;;;;;;17.20;82.45;101403.88;2054913;28;28999;-68
2022/08/27 04:42:01;;;;;;;4.13;0.60;;;;;;;17.20;82.73;101406.59;2047560;28;28491;-68
2022/08/27 04:43:03;;;;;;;5.20;0.50;;;;;;;17.21;83.23;101404.75;2048128;28;20166;-68
2022/08/27 04:44:08;;;;;;;7.68;0.47;;;;;;;17.18;83.03;101409.34;2047936;28;25205;-68
2022/08/27 04:45:10;;;;;;;5.03;0.60;;;;;;;17.18;83.45;101409.34;2047736;28;24991;-68
2022/08/27 04:46:12;;;;;;;6.70;0.50;;;;;;;17.21;83.28;101415.56;2047380;28;30891;-68
2022/08/27 04:47:15;;;;;;;3.22;0.40;;;;;;;17.21;83.00;101412.88;2047647;28;30655;-68
2022/08/27 04:48:19;;;;;;;6.57;0.65;;;;;;;17.20;82.91;101412.00;2047583;28;24094;-68
2022/08/27 04:49:22;;;;;;;5.22;0.60;;;;;;;17.21;83.15;101418.28;2047293;28;37427;-68
2022/08/27 04:50:24;;;;;;;4.60;0.52;;;;;;;17.21;82.81;101418.28;2047452;28;29854;-68
2022/08/27 04:51:30;;;;;;;3.70;0.45;;;;;;;17.21;82.89;101412.88;2047632;28;20834;-68
2022/08/27 04:52:32;;;;;;;5.30;0.40;;;;;;;17.20;83.17;101421.94;2047661;28;25604;-68
2022/08/27 04:53:34;;;;;;;7.18;0.75;;;;;;;17.18;83.05;101425.59;2047965;28;20075;-68
2022/08/27 04:54:36;;;;;;;5.22;0.70;;;;;;;17.22;82.90;101420.06;2047785;28;26931;-68
2022/08/27 04:55:47;;;;;;;5.25;0.55;;;;;;;17.21;83.08;101420.97;2047827;28;28577;-68
2022/08/27 04:56:49;;;;;;;3.75;0.30;;;;;;;17.21;82.79;101429.09;2047428;28;31006;-69
2022/08/27 04:57:51;;;;;;;7.30;0.95;;;;;;;17.23;82.29;101427.22;2047588;28;28958;-68
2022/08/27 04:58:54;;;;;;;7.68;0.52;;;;;;;17.23;82.91;101421.78;2047731;28;23586;-68
2022/08/27 04:59:56;;;;;;;8.35;0.88;;;;;;;17.22;82.93;101422.75;2047635;28;30978;-69
2022/08/27 05:01:01;;;;;;;5.65;0.60;;;;;;;17.24;82.75;101426.28;2047358;28;25729;-68